sensor_id;sensor_type;location;lat;lon;timestamp;temperature;humidity
7684;DHT22;3884;48.616;12.872;2022-08-02T00:00:16;19.40;99.90
7684;DHT22;3884;48.616;12.872;2022-08-02T00:02:44;19.50;99.90
7684;DHT22;3884;48.616;12.872;2022-08-02T00:05:12;19.30;99.90
7684;DHT22;3884;48.616;12.872;2022-08-02T00:07:41;19.40;1.00
7684;DHT22;3884;48.616;12.872;2022-08-02T00:10:09;19.40;1.00
7684;DHT22;3884;48.616;12.872;2022-08-02T00:12:37;19.40;1.00
7684;DHT22;3884;48.616;12.872;2022-08-02T00:15:05;19.40;99.90
7684;DHT22;3884;48.616;12.872;2022-08-02T00:17:32;19.50;1.00
7684;DHT22;3884;48.616;12.872;2022-08-02T00:19:59;19.50;1.00
7684;DHT22;3884;48.616;12.872;2022-08-02T00:22:26;19.60;1.00
7684;DHT22;3884;48.616;12.872;2022-08-02T00:24:54;19.60;99.90
7684;DHT22;3884;48.616;12.872;2022-08-02T00:27:21;19.60;99.90
7684;DHT22;3884;48.616;12.872;2022-08-02T00:29:48;19.60;1.00
7684;DHT22;3884;48.616;12.872;2022-08-02T00:32:16;19.60;99.90
7684;DHT22;3884;48.616;12.872;2022-08-02T00:34:43;19.50;1.00
7684;DHT22;3884;48.616;12.872;2022-08-02T00:37:10;19.40;99.90
7684;DHT22;3884;48.616;12.872;2022-08-02T00:39:37;19.30;1.00
7684;DHT22;3884;48.616;12.872;2022-08-02T00:42:05;19.30;99.90
7684;DHT22;3884;48.616;12.872;2022-08-02T00:44:32;19.30;1.00
7684;DHT22;3884;48.616;12.872;2022-08-02T00:46:59;19.30;1.00
7684;DHT22;3884;48.616;12.872;2022-08-02T00:49:26;19.40;1.00
7684;DHT22;3884;48.616;12.872;2022-08-02T00:51:53;19.30;99.90
7684;DHT22;3884;48.616;12.872;2022-08-02T00:54:20;19.30;99.90
7684;DHT22;3884;48.616;12.872;2022-08-02T00:56:47;19.40;99.90
7684;DHT22;3884;48.616;12.872;2022-08-02T00:59:16;19.40;99.90
7684;DHT22;3884;48.616;12.872;2022-08-02T01:01:42;19.30;99.90
7684;DHT22;3884;48.616;12.872;2022-08-02T01:04:11;19.30;99.90
7684;DHT22;3884;48.616;12.872;2022-08-02T01:06:39;19.30;99.90
7684;DHT22;3884;48.616;12.872;2022-08-02T01:09:07;19.30;99.90
7684;DHT22;3884;48.616;12.872;2022-08-02T01:11:35;19.20;99.90
7684;DHT22;3884;48.616;12.872;2022-08-02T01:14:05;19.20;99.90
7684;DHT22;3884;48.616;12.872;2022-08-02T01:16:38;19.30;99.90
7684;DHT22;3884;48.616;12.872;2022-08-02T01:19:14;19.20;99.90
7684;DHT22;3884;48.616;12.872;2022-08-02T01:22:03;19.20;99.90
7684;DHT22;3884;48.616;12.872;2022-08-02T01:24:49;19.20;99.90
7684;DHT22;3884;48.616;12.872;2022-08-02T01:27:36;19.10;99.90
7684;DHT22;3884;48.616;12.872;2022-08-02T01:30:06;19.20;99.90
7684;DHT22;3884;48.616;12.872;2022-08-02T01:32:36;19.20;99.90
7684;DHT22;3884;48.616;12.872;2022-08-02T01:35:09;19.20;99.90
7684;DHT22;3884;48.616;12.872;2022-08-02T01:37:40;19.30;99.90
7684;DHT22;3884;48.616;12.872;2022-08-02T01:40:11;19.30;99.90
7684;DHT22;3884;48.616;12.872;2022-08-02T01:42:40;19.30;99.90
7684;DHT22;3884;48.616;12.872;2022-08-02T01:45:11;19.30;99.90
7684;DHT22;3884;48.616;12.872;2022-08-02T01:47:40;19.20;99.90
7684;DHT22;3884;48.616;12.872;2022-08-02T01:50:13;19.30;99.90
7684;DHT22;3884;48.616;12.872;2022-08-02T01:52:46;19.30;99.90
7684;DHT22;3884;48.616;12.872;2022-08-02T01:55:18;19.30;99.90
7684;DHT22;3884;48.616;12.872;2022-08-02T01:57:49;19.20;99.90
7684;DHT22;3884;48.616;12.872;2022-08-02T02:00:20;19.20;99.90
7684;DHT22;3884;48.616;12.872;2022-08-02T02:02:49;19.10;99.90
7684;DHT22;3884;48.616;12.872;2022-08-02T02:05:19;19.10;99.90
7684;DHT22;3884;48.616;12.872;2022-08-02T02:07:57;19.00;99.90
7684;DHT22;3884;48.616;12.872;2022-08-02T02:10:26;19.00;99.90
7684;DHT22;3884;48.616;12.872;2022-08-02T02:12:55;19.00;99.90
7684;DHT22;3884;48.616;12.872;2022-08-02T02:15:24;19.10;99.90
7684;DHT22;3884;48.616;12.872;2022-08-02T02:17:53;19.10;99.90
7684;DHT22;3884;48.616;12.872;2022-08-02T02:20:22;19.30;99.90
7684;DHT22;3884;48.616;12.872;2022-08-02T02:22:49;19.40;99.90
7684;DHT22;3884;48.616;12.872;2022-08-02T02:25:18;19.40;99.90
7684;DHT22;3884;48.616;12.872;2022-08-02T02:27:51;19.20;99.90
7684;DHT22;3884;48.616;12.872;2022-08-02T02:30:19;19.10;99.90
7684;DHT22;3884;48.616;12.872;2022-08-02T02:32:49;19.00;99.90
7684;DHT22;3884;48.616;12.872;2022-08-02T02:35:18;18.90;99.90
7684;DHT22;3884;48.616;12.872;2022-08-02T02:37:47;18.80;99.90
7684;DHT22;3884;48.616;12.872;2022-08-02T02:40:16;18.80;99.90
7684;DHT22;3884;48.616;12.872;2022-08-02T02:42:44;18.90;99.90
7684;DHT22;3884;48.616;12.872;2022-08-02T02:45:12;18.80;99.90
7684;DHT22;3884;48.616;12.872;2022-08-02T02:47:40;18.80;99.90
7684;DHT22;3884;48.616;12.872;2022-08-02T02:50:10;18.80;99.90
7684;DHT22;3884;48.616;12.872;2022-08-02T02:52:38;18.70;99.90
7684;DHT22;3884;48.616;12.872;2022-08-02T02:55:07;18.80;99.90
7684;DHT22;3884;48.616;12.872;2022-08-02T02:57:35;18.80;99.90
7684;DHT22;3884;48.616;12.872;2022-08-02T03:00:03;18.70;99.90
7684;DHT22;3884;48.616;12.872;2022-08-02T03:02:31;18.70;99.90
7684;DHT22;3884;48.616;12.872;2022-08-02T03:04:59;18.60;99.90
7684;DHT22;3884;48.616;12.872;2022-08-02T03:07:28;18.60;99.90
7684;DHT22;3884;48.616;12.872;2022-08-02T03:09:56;18.50;99.90
7684;DHT22;3884;48.616;12.872;2022-08-02T03:12:23;18.60;99.90
7684;DHT22;3884;48.616;12.872;2022-08-02T03:14:51;18.60;99.90
7684;DHT22;3884;48.616;12.872;2022-08-02T03:17:18;18.60;99.90
7684;DHT22;3884;48.616;12.872;2022-08-02T03:19:45;18.60;99.90
7684;DHT22;3884;48.616;12.872;2022-08-02T03:22:12;18.60;99.90
7684;DHT22;3884;48.616;12.872;2022-08-02T03:24:40;18.60;99.90
7684;DHT22;3884;48.616;12.872;2022-08-02T03:27:07;18.50;99.90
7684;DHT22;3884;48.616;12.872;2022-08-02T03:29:34;18.50;99.90
7684;DHT22;3884;48.616;12.872;2022-08-02T03:32:00;18.50;99.90
7684;DHT22;3884;48.616;12.872;2022-08-02T03:34:28;18.50;99.90
7684;DHT22;3884;48.616;12.872;2022-08-02T03:36:55;18.40;99.90
7684;DHT22;3884;48.616;12.872;2022-08-02T03:39:24;18.40;99.90
7684;DHT22;3884;48.616;12.872;2022-08-02T03:41:53;18.40;99.90
7684;DHT22;3884;48.616;12.872;2022-08-02T03:44:21;18.40;99.90
7684;DHT22;3884;48.616;12.872;2022-08-02T03:46:49;18.40;99.90
7684;DHT22;3884;48.616;12.872;2022-08-02T03:49:17;18.30;99.90
7684;DHT22;3884;48.616;12.872;2022-08-02T03:51:44;18.30;99.90
7684;DHT22;3884;48.616;12.872;2022-08-02T03:54:12;18.30;99.90
7684;DHT22;3884;48.616;12.872;2022-08-02T03:56:39;18.30;99.90
7684;DHT22;3884;48.616;12.872;2022-08-02T03:59:09;18.40;99.90
7684;DHT22;3884;48.616;12.872;2022-08-02T04:01:36;18.40;99.90
7684;DHT22;3884;48.616;12.872;2022-08-02T04:04:04;18.40;99.90
7684;DHT22;3884;48.616;12.872;2022-08-02T04:06:31;18.50;99.90
7684;DHT22;3884;48.616;12.872;2022-08-02T04:08:58;18.50;99.90
7684;DHT22;3884;48.616;12.872;2022-08-02T04:11:25;18.50;99.90
7684;DHT22;3884;48.616;12.872;2022-08-02T04:13:59;18.40;99.90
7684;DHT22;3884;48.616;12.872;2022-08-02T04:16:36;18.50;99.90
7684;DHT22;3884;48.616;12.872;2022-08-02T04:19:06;18.60;99.90
7684;DHT22;3884;48.616;12.872;2022-08-02T04:21:38;18.60;99.90
7684;DHT22;3884;48.616;12.872;2022-08-02T04:24:07;18.70;99.90
7684;DHT22;3884;48.616;12.872;2022-08-02T04:26:36;18.70;99.90
7684;DHT22;3884;48.616;12.872;2022-08-02T04:29:03;18.70;99.90
7684;DHT22;3884;48.616;12.872;2022-08-02T04:31:32;18.60;99.90
7684;DHT22;3884;48.616;12.872;2022-08-02T04:34:00;18.60;99.90
7684;DHT22;3884;48.616;12.872;2022-08-02T04:36:27;18.60;99.90
7684;DHT22;3884;48.616;12.872;2022-08-02T04:38:54;18.70;99.90
7684;DHT22;3884;48.616;12.872;2022-08-02T04:41:21;18.80;99.90
7684;DHT22;3884;48.616;12.872;2022-08-02T04:43:48;18.80;99.90
7684;DHT22;3884;48.616;12.872;2022-08-02T04:46:15;18.80;99.90
7684;DHT22;3884;48.616;12.872;2022-08-02T04:48:43;18.90;99.90
7684;DHT22;3884;48.616;12.872;2022-08-02T04:51:10;18.90;99.90
7684;DHT22;3884;48.616;12.872;2022-08-02T04:53:37;19.10;99.90
7684;DHT22;3884;48.616;12.872;2022-08-02T04:56:04;19.00;99.90
7684;DHT22;3884;48.616;12.872;2022-08-02T04:58:31;19.10;99.90
7684;DHT22;3884;48.616;12.872;2022-08-02T05:00:57;19.10;99.90
7684;DHT22;3884;48.616;12.872;2022-08-02T05:03:24;19.00;99.90
7684;DHT22;3884;48.616;12.872;2022-08-02T05:05:53;19.00;99.90
7684;DHT22;3884;48.616;12.872;2022-08-02T05:08:19;19.00;99.90
7684;DHT22;3884;48.616;12.872;2022-08-02T05:10:46;19.10;99.90
7684;DHT22;3884;48.616;12.872;2022-08-02T05:13:13;19.10;99.90
7684;DHT22;3884;48.616;12.872;2022-08-02T05:15:40;19.20;99.90
7684;DHT22;3884;48.616;12.872;2022-08-02T05:18:07;19.20;99.90
7684;DHT22;3884;48.616;12.872;2022-08-02T05:20:34;19.20;99.90
7684;DHT22;3884;48.616;12.872;2022-08-02T05:23:02;19.30;99.90
7684;DHT22;3884;48.616;12.872;2022-08-02T05:25:29;19.30;99.90
7684;DHT22;3884;48.616;12.872;2022-08-02T05:27:56;19.40;99.90
7684;DHT22;3884;48.616;12.872;2022-08-02T05:30:22;19.50;99.90
7684;DHT22;3884;48.616;12.872;2022-08-02T05:32:50;19.50;99.90
7684;DHT22;3884;48.616;12.872;2022-08-02T05:35:19;19.50;99.90
7684;DHT22;3884;48.616;12.872;2022-08-02T05:37:46;19.50;99.90
7684;DHT22;3884;48.616;12.872;2022-08-02T05:40:15;19.60;99.90
7684;DHT22;3884;48.616;12.872;2022-08-02T05:42:42;19.60;99.90
7684;DHT22;3884;48.616;12.872;2022-08-02T05:45:10;19.60;99.90
7684;DHT22;3884;48.616;12.872;2022-08-02T05:47:37;19.60;99.90
7684;DHT22;3884;48.616;12.872;2022-08-02T05:50:06;19.60;99.90
7684;DHT22;3884;48.616;12.872;2022-08-02T05:52:43;19.70;99.90
7684;DHT22;3884;48.616;12.872;2022-08-02T05:55:11;19.70;99.90
7684;DHT22;3884;48.616;12.872;2022-08-02T05:57:50;19.70;99.90
7684;DHT22;3884;48.616;12.872;2022-08-02T06:00:19;19.70;99.90
7684;DHT22;3884;48.616;12.872;2022-08-02T06:03:02;19.70;99.90
7684;DHT22;3884;48.616;12.872;2022-08-02T06:05:32;19.70;99.90
7684;DHT22;3884;48.616;12.872;2022-08-02T06:08:01;19.80;99.90
7684;DHT22;3884;48.616;12.872;2022-08-02T06:10:29;19.80;99.90
7684;DHT22;3884;48.616;12.872;2022-08-02T06:13:06;20.00;99.90
7684;DHT22;3884;48.616;12.872;2022-08-02T06:15:34;20.00;99.90
7684;DHT22;3884;48.616;12.872;2022-08-02T06:18:02;20.10;99.90
7684;DHT22;3884;48.616;12.872;2022-08-02T06:20:30;20.20;99.90
7684;DHT22;3884;48.616;12.872;2022-08-02T06:23:01;20.10;99.90
7684;DHT22;3884;48.616;12.872;2022-08-02T06:25:29;20.20;99.90
7684;DHT22;3884;48.616;12.872;2022-08-02T06:27:57;20.20;99.90
7684;DHT22;3884;48.616;12.872;2022-08-02T06:30:26;20.30;99.90
7684;DHT22;3884;48.616;12.872;2022-08-02T06:32:53;20.30;99.90
7684;DHT22;3884;48.616;12.872;2022-08-02T06:35:20;20.30;99.90
7684;DHT22;3884;48.616;12.872;2022-08-02T06:37:50;20.40;99.90
7684;DHT22;3884;48.616;12.872;2022-08-02T06:40:25;20.60;99.90
7684;DHT22;3884;48.616;12.872;2022-08-02T06:43:02;20.60;99.90
7684;DHT22;3884;48.616;12.872;2022-08-02T06:45:33;20.80;99.90
7684;DHT22;3884;48.616;12.872;2022-08-02T06:48:00;20.80;99.90
7684;DHT22;3884;48.616;12.872;2022-08-02T06:50:27;21.00;99.90
7684;DHT22;3884;48.616;12.872;2022-08-02T06:52:54;21.10;1.00
7684;DHT22;3884;48.616;12.872;2022-08-02T06:55:21;21.10;1.00
7684;DHT22;3884;48.616;12.872;2022-08-02T06:57:47;21.10;1.00
7684;DHT22;3884;48.616;12.872;2022-08-02T07:00:14;21.20;11.40
7684;DHT22;3884;48.616;12.872;2022-08-02T07:02:43;21.30;13.60
7684;DHT22;3884;48.616;12.872;2022-08-02T07:05:10;21.50;1.00
7684;DHT22;3884;48.616;12.872;2022-08-02T07:07:37;21.60;1.00
7684;DHT22;3884;48.616;12.872;2022-08-02T07:10:04;21.80;99.90
7684;DHT22;3884;48.616;12.872;2022-08-02T07:12:32;21.80;99.90
7684;DHT22;3884;48.616;12.872;2022-08-02T07:15:00;22.00;1.00
7684;DHT22;3884;48.616;12.872;2022-08-02T07:17:28;21.90;1.00
7684;DHT22;3884;48.616;12.872;2022-08-02T07:19:56;22.10;99.90
7684;DHT22;3884;48.616;12.872;2022-08-02T07:22:24;22.00;99.90
7684;DHT22;3884;48.616;12.872;2022-08-02T07:24:52;21.70;1.00
7684;DHT22;3884;48.616;12.872;2022-08-02T07:27:19;21.80;1.00
7684;DHT22;3884;48.616;12.872;2022-08-02T07:29:46;21.80;99.90
7684;DHT22;3884;48.616;12.872;2022-08-02T07:32:14;21.70;99.90
7684;DHT22;3884;48.616;12.872;2022-08-02T07:34:41;21.60;66.10
7684;DHT22;3884;48.616;12.872;2022-08-02T07:37:09;21.60;99.90
7684;DHT22;3884;48.616;12.872;2022-08-02T07:39:36;21.80;1.00
7684;DHT22;3884;48.616;12.872;2022-08-02T07:42:03;22.10;1.00
7684;DHT22;3884;48.616;12.872;2022-08-02T07:44:30;22.50;1.00
7684;DHT22;3884;48.616;12.872;2022-08-02T07:46:59;22.50;1.00
7684;DHT22;3884;48.616;12.872;2022-08-02T07:49:26;22.30;99.90
7684;DHT22;3884;48.616;12.872;2022-08-02T07:51:53;22.20;1.00
7684;DHT22;3884;48.616;12.872;2022-08-02T07:54:22;22.30;1.00
7684;DHT22;3884;48.616;12.872;2022-08-02T07:56:49;22.40;1.00
7684;DHT22;3884;48.616;12.872;2022-08-02T07:59:18;22.50;1.00
7684;DHT22;3884;48.616;12.872;2022-08-02T08:01:45;22.70;1.30
7684;DHT22;3884;48.616;12.872;2022-08-02T08:04:14;22.90;1.00
7684;DHT22;3884;48.616;12.872;2022-08-02T08:06:40;22.90;1.00
7684;DHT22;3884;48.616;12.872;2022-08-02T08:09:08;22.80;1.00
7684;DHT22;3884;48.616;12.872;2022-08-02T08:11:36;22.50;99.90
7684;DHT22;3884;48.616;12.872;2022-08-02T08:14:04;22.90;1.00
7684;DHT22;3884;48.616;12.872;2022-08-02T08:16:31;22.80;1.00
7684;DHT22;3884;48.616;12.872;2022-08-02T08:18:58;22.40;99.90
7684;DHT22;3884;48.616;12.872;2022-08-02T08:21:25;22.40;99.90
7684;DHT22;3884;48.616;12.872;2022-08-02T08:23:52;22.40;33.40
7684;DHT22;3884;48.616;12.872;2022-08-02T08:26:18;22.40;99.90
7684;DHT22;3884;48.616;12.872;2022-08-02T08:28:47;22.30;1.00
7684;DHT22;3884;48.616;12.872;2022-08-02T08:31:14;22.20;1.00
7684;DHT22;3884;48.616;12.872;2022-08-02T08:33:40;22.10;1.00
7684;DHT22;3884;48.616;12.872;2022-08-02T08:36:07;22.50;1.00
7684;DHT22;3884;48.616;12.872;2022-08-02T08:38:34;22.70;1.00
7684;DHT22;3884;48.616;12.872;2022-08-02T08:41:01;23.00;99.90
7684;DHT22;3884;48.616;12.872;2022-08-02T08:43:28;23.10;24.00
7684;DHT22;3884;48.616;12.872;2022-08-02T08:45:56;23.30;1.00
7684;DHT22;3884;48.616;12.872;2022-08-02T08:48:24;23.50;1.00
7684;DHT22;3884;48.616;12.872;2022-08-02T08:50:55;23.60;1.00
7684;DHT22;3884;48.616;12.872;2022-08-02T08:53:23;23.80;1.00
7684;DHT22;3884;48.616;12.872;2022-08-02T08:55:52;23.90;1.00
7684;DHT22;3884;48.616;12.872;2022-08-02T08:58:21;24.30;1.00
7684;DHT22;3884;48.616;12.872;2022-08-02T09:00:48;24.70;1.00
7684;DHT22;3884;48.616;12.872;2022-08-02T09:03:16;25.00;99.90
7684;DHT22;3884;48.616;12.872;2022-08-02T09:05:43;25.00;99.90
7684;DHT22;3884;48.616;12.872;2022-08-02T09:08:12;25.10;99.90
7684;DHT22;3884;48.616;12.872;2022-08-02T09:10:41;25.10;1.00
7684;DHT22;3884;48.616;12.872;2022-08-02T09:13:11;25.30;1.00
7684;DHT22;3884;48.616;12.872;2022-08-02T09:15:39;25.20;99.90
7684;DHT22;3884;48.616;12.872;2022-08-02T09:18:07;25.20;1.00
7684;DHT22;3884;48.616;12.872;2022-08-02T09:20:51;25.00;1.00
7684;DHT22;3884;48.616;12.872;2022-08-02T09:23:18;25.10;1.00
7684;DHT22;3884;48.616;12.872;2022-08-02T09:25:55;25.10;1.00
7684;DHT22;3884;48.616;12.872;2022-08-02T09:28:26;24.90;1.00
7684;DHT22;3884;48.616;12.872;2022-08-02T09:30:56;25.10;1.00
7684;DHT22;3884;48.616;12.872;2022-08-02T09:33:24;25.00;99.90
7684;DHT22;3884;48.616;12.872;2022-08-02T09:35:59;25.10;1.00
7684;DHT22;3884;48.616;12.872;2022-08-02T09:38:27;25.50;1.00
7684;DHT22;3884;48.616;12.872;2022-08-02T09:40:54;25.70;99.90
7684;DHT22;3884;48.616;12.872;2022-08-02T09:43:22;25.80;99.90
7684;DHT22;3884;48.616;12.872;2022-08-02T09:46:09;25.70;99.90
7684;DHT22;3884;48.616;12.872;2022-08-02T09:48:46;25.70;99.90
7684;DHT22;3884;48.616;12.872;2022-08-02T09:51:16;25.80;99.90
7684;DHT22;3884;48.616;12.872;2022-08-02T09:53:43;26.10;99.90
7684;DHT22;3884;48.616;12.872;2022-08-02T09:56:10;26.00;99.90
7684;DHT22;3884;48.616;12.872;2022-08-02T09:58:38;26.30;99.90
7684;DHT22;3884;48.616;12.872;2022-08-02T10:01:06;26.10;99.90
7684;DHT22;3884;48.616;12.872;2022-08-02T10:03:33;26.50;99.90
7684;DHT22;3884;48.616;12.872;2022-08-02T10:06:01;26.60;99.90
7684;DHT22;3884;48.616;12.872;2022-08-02T10:08:30;26.70;99.90
7684;DHT22;3884;48.616;12.872;2022-08-02T10:10:58;26.70;99.90
7684;DHT22;3884;48.616;12.872;2022-08-02T10:13:28;26.50;99.90
7684;DHT22;3884;48.616;12.872;2022-08-02T10:15:56;26.50;99.90
7684;DHT22;3884;48.616;12.872;2022-08-02T10:18:23;26.60;99.90
7684;DHT22;3884;48.616;12.872;2022-08-02T10:20:50;26.50;99.90
7684;DHT22;3884;48.616;12.872;2022-08-02T10:23:20;26.20;99.90
7684;DHT22;3884;48.616;12.872;2022-08-02T10:25:50;25.80;99.90
7684;DHT22;3884;48.616;12.872;2022-08-02T10:28:19;25.60;99.90
7684;DHT22;3884;48.616;12.872;2022-08-02T10:30:52;25.90;99.90
7684;DHT22;3884;48.616;12.872;2022-08-02T10:33:22;25.80;99.90
7684;DHT22;3884;48.616;12.872;2022-08-02T10:35:52;25.70;99.90
7684;DHT22;3884;48.616;12.872;2022-08-02T10:38:22;25.70;99.90
7684;DHT22;3884;48.616;12.872;2022-08-02T10:40:52;25.80;99.90
7684;DHT22;3884;48.616;12.872;2022-08-02T10:43:43;25.90;99.90
7684;DHT22;3884;48.616;12.872;2022-08-02T10:46:37;25.90;99.90
7684;DHT22;3884;48.616;12.872;2022-08-02T10:49:07;26.10;99.90
7684;DHT22;3884;48.616;12.872;2022-08-02T10:54:48;26.40;99.90
7684;DHT22;3884;48.616;12.872;2022-08-02T10:57:22;26.30;99.90
7684;DHT22;3884;48.616;12.872;2022-08-02T10:59:50;26.40;99.90
7684;DHT22;3884;48.616;12.872;2022-08-02T11:02:38;26.50;99.90
7684;DHT22;3884;48.616;12.872;2022-08-02T11:05:26;26.70;99.90
7684;DHT22;3884;48.616;12.872;2022-08-02T11:07:53;26.70;99.90
7684;DHT22;3884;48.616;12.872;2022-08-02T11:10:35;26.90;99.90
7684;DHT22;3884;48.616;12.872;2022-08-02T11:13:10;26.30;99.90
7684;DHT22;3884;48.616;12.872;2022-08-02T11:15:51;25.90;99.90
7684;DHT22;3884;48.616;12.872;2022-08-02T11:18:19;25.90;99.90
7684;DHT22;3884;48.616;12.872;2022-08-02T11:20:46;25.80;99.90
7684;DHT22;3884;48.616;12.872;2022-08-02T11:23:35;25.80;99.90
7684;DHT22;3884;48.616;12.872;2022-08-02T11:26:41;25.90;99.90
7684;DHT22;3884;48.616;12.872;2022-08-02T11:29:10;26.10;99.90
7684;DHT22;3884;48.616;12.872;2022-08-02T11:31:38;26.40;99.90
7684;DHT22;3884;48.616;12.872;2022-08-02T11:34:05;26.50;99.90
7684;DHT22;3884;48.616;12.872;2022-08-02T11:36:32;26.50;99.90
7684;DHT22;3884;48.616;12.872;2022-08-02T11:39:08;26.50;99.90
7684;DHT22;3884;48.616;12.872;2022-08-02T11:41:36;26.30;99.90
7684;DHT22;3884;48.616;12.872;2022-08-02T11:44:03;26.20;99.90
7684;DHT22;3884;48.616;12.872;2022-08-02T11:46:31;26.20;99.90
7684;DHT22;3884;48.616;12.872;2022-08-02T11:49:12;26.30;99.90
7684;DHT22;3884;48.616;12.872;2022-08-02T11:51:53;26.40;99.90
7684;DHT22;3884;48.616;12.872;2022-08-02T11:54:23;26.70;99.90
7684;DHT22;3884;48.616;12.872;2022-08-02T11:56:50;26.80;99.90
7684;DHT22;3884;48.616;12.872;2022-08-02T11:59:17;26.90;99.90
7684;DHT22;3884;48.616;12.872;2022-08-02T12:01:45;27.10;99.90
7684;DHT22;3884;48.616;12.872;2022-08-02T12:04:16;27.10;99.90
7684;DHT22;3884;48.616;12.872;2022-08-02T12:06:52;27.00;92.30
7684;DHT22;3884;48.616;12.872;2022-08-02T12:09:19;26.80;76.40
7684;DHT22;3884;48.616;12.872;2022-08-02T12:11:48;26.80;80.50
7684;DHT22;3884;48.616;12.872;2022-08-02T12:14:14;27.00;36.80
7684;DHT22;3884;48.616;12.872;2022-08-02T12:16:41;27.10;54.10
7684;DHT22;3884;48.616;12.872;2022-08-02T12:19:27;27.00;59.90
7684;DHT22;3884;48.616;12.872;2022-08-02T12:22:15;27.40;80.70
7684;DHT22;3884;48.616;12.872;2022-08-02T12:24:45;27.60;23.30
7684;DHT22;3884;48.616;12.872;2022-08-02T12:27:28;27.70;1.00
7684;DHT22;3884;48.616;12.872;2022-08-02T12:29:59;27.70;1.00
7684;DHT22;3884;48.616;12.872;2022-08-02T12:32:27;27.80;1.00
7684;DHT22;3884;48.616;12.872;2022-08-02T12:35:04;27.80;1.00
7684;DHT22;3884;48.616;12.872;2022-08-02T12:37:31;28.00;1.00
7684;DHT22;3884;48.616;12.872;2022-08-02T12:40:17;27.80;1.00
7684;DHT22;3884;48.616;12.872;2022-08-02T12:42:45;28.10;1.00
7684;DHT22;3884;48.616;12.872;2022-08-02T12:45:12;28.00;1.00
7684;DHT22;3884;48.616;12.872;2022-08-02T12:47:44;28.10;1.00
7684;DHT22;3884;48.616;12.872;2022-08-02T12:50:16;28.30;1.00
7684;DHT22;3884;48.616;12.872;2022-08-02T12:52:45;28.40;1.00
7684;DHT22;3884;48.616;12.872;2022-08-02T12:55:16;28.60;1.00
7684;DHT22;3884;48.616;12.872;2022-08-02T12:57:54;28.70;1.00
7684;DHT22;3884;48.616;12.872;2022-08-02T13:00:26;28.60;1.00
7684;DHT22;3884;48.616;12.872;2022-08-02T13:02:53;28.10;1.00
7684;DHT22;3884;48.616;12.872;2022-08-02T13:05:22;28.00;1.00
7684;DHT22;3884;48.616;12.872;2022-08-02T13:07:49;28.40;1.00
7684;DHT22;3884;48.616;12.872;2022-08-02T13:10:16;28.60;1.00
7684;DHT22;3884;48.616;12.872;2022-08-02T13:12:44;28.80;1.00
7684;DHT22;3884;48.616;12.872;2022-08-02T13:15:11;28.80;1.00
7684;DHT22;3884;48.616;12.872;2022-08-02T13:17:38;28.90;1.00
7684;DHT22;3884;48.616;12.872;2022-08-02T13:20:06;29.20;1.00
7684;DHT22;3884;48.616;12.872;2022-08-02T13:22:36;29.50;1.00
7684;DHT22;3884;48.616;12.872;2022-08-02T13:25:04;29.60;1.00
7684;DHT22;3884;48.616;12.872;2022-08-02T13:27:31;29.50;1.00
7684;DHT22;3884;48.616;12.872;2022-08-02T13:29:59;29.60;1.00
7684;DHT22;3884;48.616;12.872;2022-08-02T13:32:27;29.70;1.00
7684;DHT22;3884;48.616;12.872;2022-08-02T13:34:56;29.80;1.00
7684;DHT22;3884;48.616;12.872;2022-08-02T13:37:23;29.90;1.00
7684;DHT22;3884;48.616;12.872;2022-08-02T13:39:52;30.00;1.00
7684;DHT22;3884;48.616;12.872;2022-08-02T13:42:19;30.10;1.00
7684;DHT22;3884;48.616;12.872;2022-08-02T13:44:46;30.30;1.00
7684;DHT22;3884;48.616;12.872;2022-08-02T13:47:13;30.50;1.00
7684;DHT22;3884;48.616;12.872;2022-08-02T13:49:40;30.30;1.00
7684;DHT22;3884;48.616;12.872;2022-08-02T13:52:07;30.40;1.00
7684;DHT22;3884;48.616;12.872;2022-08-02T13:54:35;30.20;1.00
7684;DHT22;3884;48.616;12.872;2022-08-02T13:57:03;30.60;1.00
7684;DHT22;3884;48.616;12.872;2022-08-02T13:59:30;30.60;1.00
7684;DHT22;3884;48.616;12.872;2022-08-02T14:01:57;30.60;1.00
7684;DHT22;3884;48.616;12.872;2022-08-02T14:04:25;31.00;1.00
7684;DHT22;3884;48.616;12.872;2022-08-02T14:06:52;31.00;1.00
7684;DHT22;3884;48.616;12.872;2022-08-02T14:09:19;31.10;1.00
7684;DHT22;3884;48.616;12.872;2022-08-02T14:11:47;30.90;1.00
7684;DHT22;3884;48.616;12.872;2022-08-02T14:14:16;31.10;1.00
7684;DHT22;3884;48.616;12.872;2022-08-02T14:16:43;31.20;1.00
7684;DHT22;3884;48.616;12.872;2022-08-02T14:19:09;31.10;1.00
7684;DHT22;3884;48.616;12.872;2022-08-02T14:21:36;31.50;1.00
7684;DHT22;3884;48.616;12.872;2022-08-02T14:24:04;30.80;1.00
7684;DHT22;3884;48.616;12.872;2022-08-02T14:26:30;31.00;1.00
7684;DHT22;3884;48.616;12.872;2022-08-02T14:28:57;31.20;1.00
7684;DHT22;3884;48.616;12.872;2022-08-02T14:31:25;31.50;1.00
7684;DHT22;3884;48.616;12.872;2022-08-02T14:33:52;31.50;1.00
7684;DHT22;3884;48.616;12.872;2022-08-02T14:36:19;31.30;1.00
7684;DHT22;3884;48.616;12.872;2022-08-02T14:38:46;31.50;1.00
7684;DHT22;3884;48.616;12.872;2022-08-02T14:41:13;31.50;1.00
7684;DHT22;3884;48.616;12.872;2022-08-02T14:43:40;31.60;1.00
7684;DHT22;3884;48.616;12.872;2022-08-02T14:46:26;31.80;1.00
7684;DHT22;3884;48.616;12.872;2022-08-02T14:48:53;31.20;1.00
7684;DHT22;3884;48.616;12.872;2022-08-02T14:51:19;31.30;1.00
7684;DHT22;3884;48.616;12.872;2022-08-02T14:53:46;31.90;1.00
7684;DHT22;3884;48.616;12.872;2022-08-02T14:56:13;31.80;1.00
7684;DHT22;3884;48.616;12.872;2022-08-02T14:58:40;32.00;1.00
7684;DHT22;3884;48.616;12.872;2022-08-02T15:01:07;31.80;1.00
7684;DHT22;3884;48.616;12.872;2022-08-02T15:03:35;32.10;1.00
7684;DHT22;3884;48.616;12.872;2022-08-02T15:06:02;32.30;1.00
7684;DHT22;3884;48.616;12.872;2022-08-02T15:08:29;32.60;1.00
7684;DHT22;3884;48.616;12.872;2022-08-02T15:10:56;32.60;1.00
7684;DHT22;3884;48.616;12.872;2022-08-02T15:13:23;32.20;1.00
7684;DHT22;3884;48.616;12.872;2022-08-02T15:15:50;31.90;1.00
7684;DHT22;3884;48.616;12.872;2022-08-02T15:18:17;31.60;1.00
7684;DHT22;3884;48.616;12.872;2022-08-02T15:20:45;31.80;1.00
7684;DHT22;3884;48.616;12.872;2022-08-02T15:23:12;32.10;1.00
7684;DHT22;3884;48.616;12.872;2022-08-02T15:25:39;32.30;1.00
7684;DHT22;3884;48.616;12.872;2022-08-02T15:28:06;32.00;1.00
7684;DHT22;3884;48.616;12.872;2022-08-02T15:30:33;32.20;1.00
7684;DHT22;3884;48.616;12.872;2022-08-02T15:33:00;32.60;1.00
7684;DHT22;3884;48.616;12.872;2022-08-02T15:35:27;32.50;1.00
7684;DHT22;3884;48.616;12.872;2022-08-02T15:37:55;32.20;1.00
7684;DHT22;3884;48.616;12.872;2022-08-02T15:40:23;32.40;1.00
7684;DHT22;3884;48.616;12.872;2022-08-02T15:42:50;32.10;1.00
7684;DHT22;3884;48.616;12.872;2022-08-02T15:45:17;31.90;1.00
7684;DHT22;3884;48.616;12.872;2022-08-02T15:47:44;32.00;1.00
7684;DHT22;3884;48.616;12.872;2022-08-02T15:50:11;32.10;1.00
7684;DHT22;3884;48.616;12.872;2022-08-02T15:52:38;32.10;1.00
7684;DHT22;3884;48.616;12.872;2022-08-02T15:55:07;32.20;1.00
7684;DHT22;3884;48.616;12.872;2022-08-02T15:57:34;32.30;1.00
7684;DHT22;3884;48.616;12.872;2022-08-02T16:00:02;32.10;1.00
7684;DHT22;3884;48.616;12.872;2022-08-02T16:02:30;32.20;1.00
7684;DHT22;3884;48.616;12.872;2022-08-02T16:04:57;32.20;1.00
7684;DHT22;3884;48.616;12.872;2022-08-02T16:07:24;32.10;1.00